TimeCDT,TemperatureF,Dew PointF,Humidity,Sea Level PressureIn,VisibilityMPH,Wind Direction,Wind SpeedMPH,Gust SpeedMPH,PrecipitationIn,Events,Conditions,WindDirDegrees,DateUTC
12:54 AM,59.0,57.0,93,29.55,10.0,SSW,6.9,-,N/A,,Clear,210,2013-05-20 05:54:00
1:54 AM,59.0,55.9,90,29.54,10.0,SSW,9.2,-,N/A,,Clear,210,2013-05-20 06:54:00
2:54 AM,59.0,53.6,82,29.55,10.0,SW,8.1,-,N/A,,Clear,220,2013-05-20 07:54:00
3:54 AM,57.9,53.1,84,29.53,10.0,SSW,10.4,-,N/A,,Clear,210,2013-05-20 08:54:00
4:54 AM,57.9,54.0,87,29.54,10.0,SW,11.5,-,N/A,,Mostly Cloudy,220,2013-05-20 09:54:00
5:30 AM,59.0,55.4,88,29.58,10.0,WSW,11.5,-,N/A,,Mostly Cloudy,240,2013-05-20 10:30:00
5:54 AM,60.1,55.9,86,29.58,10.0,West,10.4,-,N/A,,Mostly Cloudy,270,2013-05-20 10:54:00
6:05 AM,60.8,55.4,82,29.60,9.0,WNW,10.4,-,N/A,,Scattered Clouds,290,2013-05-20 11:05:00
6:54 AM,60.1,55.9,86,29.62,7.0,WSW,9.2,-,N/A,,Scattered Clouds,250,2013-05-20 11:54:00
7:02 AM,60.8,55.4,82,29.64,7.0,WSW,9.2,-,N/A,,Mostly Cloudy,240,2013-05-20 12:02:00
7:14 AM,60.8,55.4,82,29.64,9.0,West,15.0,-,N/A,,Mostly Cloudy,270,2013-05-20 12:14:00
7:24 AM,60.8,53.6,77,29.65,10.0,West,13.8,-,N/A,,Scattered Clouds,270,2013-05-20 12:24:00
7:54 AM,61.0,54.0,78,29.64,10.0,West,13.8,-,N/A,,Clear,270,2013-05-20 12:54:00
8:54 AM,64.4,53.6,68,29.67,10.0,West,15.0,-,N/A,,Clear,260,2013-05-20 13:54:00
9:54 AM,66.0,53.1,63,29.67,10.0,WSW,12.7,-,N/A,,Partly Cloudy,240,2013-05-20 14:54:00
10:54 AM,69.1,53.1,57,29.65,10.0,WSW,16.1,21.9,N/A,,Clear,240,2013-05-20 15:54:00
11:54 AM,71.1,54.0,55,29.65,10.0,SSW,15.0,20.7,N/A,,Partly Cloudy,210,2013-05-20 16:54:00
12:54 PM,72.0,54.0,53,29.65,10.0,SSW,15.0,-,N/A,,Mostly Cloudy,210,2013-05-20 17:54:00
1:54 PM,73.0,54.0,51,29.63,10.0,SSW,15.0,24.2,N/A,,Mostly Cloudy,210,2013-05-20 18:54:00
2:54 PM,73.9,54.0,50,29.61,10.0,SSW,24.2,32.2,N/A,,Mostly Cloudy,210,2013-05-20 19:54:00
3:54 PM,75.9,55.0,48,29.60,10.0,SW,16.1,25.3,N/A,,Overcast,230,2013-05-20 20:54:00
4:54 PM,75.0,50.0,41,29.58,10.0,SW,21.9,29.9,N/A,,Mostly Cloudy,230,2013-05-20 21:54:00
5:54 PM,75.0,50.0,41,29.55,10.0,WSW,19.6,-,N/A,,Mostly Cloudy,240,2013-05-20 22:54:00
6:54 PM,75.0,48.0,38,29.55,10.0,WSW,19.6,24.2,N/A,,Clear,250,2013-05-20 23:54:00
7:54 PM,72.0,46.9,41,29.57,10.0,WSW,13.8,-,N/A,,Clear,250,2013-05-21 00:54:00
8:54 PM,68.0,46.4,46,29.60,10.0,WSW,10.4,-,N/A,,Clear,250,2013-05-21 01:54:00
9:54 PM,64.9,48.9,56,29.60,10.0,West,17.3,24.2,N/A,,Clear,270,2013-05-21 02:54:00
10:54 PM,63.0,53.1,70,29.62,10.0,West,12.7,-,N/A,,Overcast,270,2013-05-21 03:54:00
11:54 PM,61.0,55.0,81,29.62,10.0,West,13.8,-,N/A,,Partly Cloudy,280,2013-05-21 04:54:00